createdAt,value
2018-01-18T00:00:53.677Z,52.90
2018-01-18T00:01:56.144Z,52.93
2018-01-18T00:02:58.608Z,52.93
2018-01-18T00:04:01.076Z,52.99
2018-01-18T00:05:03.575Z,52.98
2018-01-18T00:06:06.030Z,53.04
2018-01-18T00:07:08.500Z,53.08
2018-01-18T00:08:11.312Z,53.14
2018-01-18T00:09:13.762Z,53.18
2018-01-18T00:10:16.238Z,53.19
2018-01-18T00:11:18.701Z,53.25
2018-01-18T00:12:21.153Z,53.25
2018-01-18T00:13:23.623Z,53.30
2018-01-18T00:14:26.083Z,53.31
2018-01-18T00:15:28.574Z,53.27
2018-01-18T00:16:31.035Z,53.31
2018-01-18T00:17:33.508Z,53.33
2018-01-18T00:18:35.961Z,53.37
2018-01-18T00:19:38.428Z,53.41
2018-01-18T00:20:40.902Z,53.45
2018-01-18T00:21:43.368Z,53.46
2018-01-18T00:22:45.832Z,53.50
2018-01-18T00:23:48.286Z,53.55
2018-01-18T00:24:50.747Z,53.59
2018-01-18T00:25:53.234Z,53.65
2018-01-18T00:26:55.685Z,53.67
2018-01-18T00:27:58.148Z,53.70
2018-01-18T00:29:00.597Z,53.74
2018-01-18T00:30:03.049Z,53.82
2018-01-18T00:31:05.590Z,53.89
2018-01-18T00:32:08.056Z,53.88
2018-01-18T00:33:10.506Z,53.93
2018-01-18T00:34:12.962Z,53.99
2018-01-18T00:35:15.417Z,54.06
2018-01-18T00:36:17.894Z,54.08
2018-01-18T00:37:20.368Z,54.12
2018-01-18T00:38:22.844Z,54.27
2018-01-18T00:39:25.298Z,54.33
2018-01-18T00:40:27.760Z,54.33
2018-01-18T00:41:30.244Z,54.42
2018-01-18T00:42:32.699Z,54.47
2018-01-18T00:43:35.164Z,54.53
2018-01-18T00:44:37.628Z,54.63
2018-01-18T00:45:40.160Z,54.68
2018-01-18T00:46:42.648Z,54.71
2018-01-18T00:47:45.102Z,54.80
2018-01-18T00:48:47.554Z,54.81
2018-01-18T00:49:50.020Z,54.94
2018-01-18T00:50:52.488Z,55.19
2018-01-18T00:51:54.957Z,55.20
2018-01-18T00:52:57.420Z,55.50
2018-01-18T00:53:59.874Z,55.54
2018-01-18T00:55:02.332Z,55.55
2018-01-18T00:56:04.796Z,55.46
2018-01-18T00:57:07.272Z,55.52
2018-01-18T00:58:09.718Z,55.42
2018-01-18T00:59:12.169Z,55.43
2018-01-18T01:00:14.622Z,55.41
2018-01-18T01:01:17.087Z,55.43
2018-01-18T01:02:19.571Z,55.50
2018-01-18T01:03:22.022Z,55.45
2018-01-18T01:04:24.485Z,55.41
2018-01-18T01:05:26.934Z,55.44
2018-01-18T01:06:29.386Z,55.40
2018-01-18T01:07:31.876Z,55.45
2018-01-18T01:08:34.340Z,55.42
2018-01-18T01:09:36.828Z,55.55
2018-01-18T01:10:39.304Z,55.52
2018-01-18T01:11:41.776Z,55.52
2018-01-18T01:12:44.267Z,55.43
2018-01-18T01:13:46.766Z,55.49
2018-01-18T01:14:49.214Z,55.64
2018-01-18T01:15:51.720Z,55.70
2018-01-18T01:16:54.192Z,55.69
2018-01-18T01:17:56.661Z,55.85
2018-01-18T01:18:59.128Z,56.04
2018-01-18T01:20:01.578Z,56.05
2018-01-18T01:21:04.042Z,56.05
2018-01-18T01:22:06.500Z,56.04
2018-01-18T01:23:08.991Z,56.27
2018-01-18T01:24:11.456Z,56.26
2018-01-18T01:25:13.905Z,56.17
2018-01-18T01:26:16.349Z,56.14
2018-01-18T01:27:18.803Z,56.27
2018-01-18T01:28:21.278Z,56.30
2018-01-18T01:29:23.760Z,56.34
2018-01-18T01:30:26.229Z,56.55
2018-01-18T01:31:28.684Z,56.60
2018-01-18T01:32:31.138Z,56.69
2018-01-18T01:33:33.609Z,56.84
2018-01-18T01:34:36.081Z,56.83
2018-01-18T01:35:38.525Z,56.98
2018-01-18T01:36:40.973Z,56.97
2018-01-18T01:37:43.476Z,56.90
2018-01-18T01:38:45.955Z,57.04
2018-01-18T01:39:48.421Z,57.05
2018-01-18T01:40:50.888Z,57.21
2018-01-18T01:41:53.356Z,57.29
2018-01-18T01:42:55.806Z,57.36
2018-01-18T01:43:58.281Z,57.45
2018-01-18T01:45:00.745Z,57.38
2018-01-18T01:46:03.213Z,57.43
2018-01-18T01:47:05.667Z,57.63
2018-01-18T01:48:08.136Z,57.54
2018-01-18T01:49:10.609Z,57.50
2018-01-18T01:50:13.062Z,57.67
2018-01-18T01:51:15.528Z,57.63
2018-01-18T01:52:18.004Z,57.59
2018-01-18T01:53:20.469Z,57.76
2018-01-18T01:54:22.959Z,57.81
2018-01-18T01:55:25.417Z,57.68
2018-01-18T01:56:27.888Z,57.53
2018-01-18T01:57:30.356Z,57.29
2018-01-18T01:58:32.878Z,57.31
2018-01-18T01:59:35.344Z,57.02
2018-01-18T02:00:37.808Z,57.01
2018-01-18T02:01:40.273Z,57.33
2018-01-18T02:02:42.749Z,57.58
2018-01-18T02:03:45.218Z,57.56
2018-01-18T02:04:47.697Z,57.61
2018-01-18T02:05:50.154Z,57.77
2018-01-18T02:06:52.636Z,57.91
2018-01-18T02:07:55.108Z,58.02
2018-01-18T02:08:57.579Z,58.06
2018-01-18T02:10:00.087Z,57.95
2018-01-18T02:11:02.541Z,57.95
2018-01-18T02:12:05.049Z,57.80
2018-01-18T02:13:07.479Z,57.81
2018-01-18T02:14:09.952Z,57.60
2018-01-18T02:15:12.443Z,57.41
2018-01-18T02:16:14.916Z,57.33
2018-01-18T02:17:17.380Z,57.42
2018-01-18T02:18:19.860Z,57.43
2018-01-18T02:19:22.348Z,57.38
2018-01-18T02:20:24.830Z,57.28
2018-01-18T02:21:27.286Z,57.37
2018-01-18T02:22:29.743Z,57.44
2018-01-18T02:23:32.208Z,57.46
2018-01-18T02:24:34.676Z,57.44
2018-01-18T02:25:37.152Z,57.39
2018-01-18T02:26:39.613Z,57.55
2018-01-18T02:27:42.081Z,57.57
2018-01-18T02:28:44.559Z,57.37
2018-01-18T02:29:47.018Z,57.40
2018-01-18T02:30:49.503Z,57.46
2018-01-18T02:31:51.958Z,57.40
2018-01-18T02:32:54.410Z,57.39
2018-01-18T02:33:56.893Z,57.26
2018-01-18T02:34:59.364Z,57.15
2018-01-18T02:36:01.852Z,57.17
2018-01-18T02:37:04.325Z,57.34
2018-01-18T02:38:06.796Z,57.55
2018-01-18T02:39:09.266Z,57.36
2018-01-18T02:40:11.721Z,57.46
2018-01-18T02:41:14.204Z,57.87
2018-01-18T02:42:16.654Z,58.10
2018-01-18T02:43:19.124Z,58.27
2018-01-18T02:44:21.578Z,58.29
2018-01-18T02:45:24.032Z,58.25
2018-01-18T02:46:26.513Z,58.24
2018-01-18T02:47:28.987Z,58.36
2018-01-18T02:48:31.438Z,58.41
2018-01-18T02:49:33.889Z,58.17
2018-01-18T02:50:36.352Z,58.45
2018-01-18T02:51:38.840Z,58.29
2018-01-18T02:52:41.311Z,58.42
2018-01-18T02:53:43.776Z,58.63
2018-01-18T02:54:46.230Z,58.69
2018-01-18T02:55:48.683Z,58.69
2018-01-18T02:56:51.180Z,58.65
2018-01-18T02:57:53.644Z,58.67
2018-01-18T02:58:56.108Z,58.70
2018-01-18T02:59:58.572Z,58.70
2018-01-18T03:01:01.021Z,58.57
2018-01-18T03:02:03.513Z,58.65
2018-01-18T03:03:06.005Z,58.79
2018-01-18T03:04:08.503Z,59.22
2018-01-18T03:05:10.957Z,59.29
2018-01-18T03:06:13.457Z,58.95
2018-01-18T03:07:15.995Z,58.62
2018-01-18T03:08:18.455Z,58.48
2018-01-18T03:09:20.907Z,58.72
2018-01-18T03:10:23.365Z,58.77
2018-01-18T03:11:25.886Z,58.84
2018-01-18T03:12:28.366Z,58.71
2018-01-18T03:13:30.833Z,58.48
2018-01-18T03:14:33.311Z,58.78
2018-01-18T03:15:35.797Z,58.95
2018-01-18T03:16:38.260Z,59.31
2018-01-18T03:17:40.743Z,59.35
2018-01-18T03:18:43.207Z,59.40
2018-01-18T03:19:45.667Z,59.32
2018-01-18T03:20:48.129Z,59.27
2018-01-18T03:21:50.573Z,59.28
2018-01-18T03:22:53.042Z,59.35
2018-01-18T03:23:55.512Z,59.35
2018-01-18T03:24:57.971Z,59.33
2018-01-18T03:26:00.432Z,59.31
2018-01-18T03:27:02.899Z,59.17
2018-01-18T03:28:05.384Z,59.12
2018-01-18T03:29:07.850Z,59.19
2018-01-18T03:30:10.310Z,59.04
2018-01-18T03:31:12.787Z,58.85
2018-01-18T03:32:15.256Z,58.81
2018-01-18T03:33:17.724Z,59.14
2018-01-18T03:34:20.178Z,59.27
2018-01-18T03:35:22.644Z,59.28
2018-01-18T03:36:25.111Z,59.26
2018-01-18T03:37:27.557Z,59.17
2018-01-18T03:38:30.007Z,59.25
2018-01-18T03:39:32.480Z,59.37
2018-01-18T03:40:34.949Z,59.37
2018-01-18T03:41:37.416Z,59.27
2018-01-18T03:42:39.873Z,59.24
2018-01-18T03:43:42.335Z,59.31
2018-01-18T03:44:44.826Z,59.44
2018-01-18T03:45:47.278Z,59.16
2018-01-18T03:46:49.733Z,58.79
2018-01-18T03:47:52.211Z,59.16
2018-01-18T03:48:54.671Z,59.39
2018-01-18T03:49:57.121Z,59.31
2018-01-18T03:50:59.592Z,59.50
2018-01-18T03:52:02.069Z,59.55
2018-01-18T03:53:04.544Z,59.53
2018-01-18T03:54:07.024Z,59.59
2018-01-18T03:55:09.479Z,59.54
2018-01-18T03:56:11.929Z,59.55
2018-01-18T03:57:14.391Z,59.50
2018-01-18T03:58:16.837Z,59.54
2018-01-18T03:59:19.286Z,59.44
2018-01-18T04:00:21.760Z,59.36
2018-01-18T04:01:24.250Z,59.48
2018-01-18T04:02:26.728Z,59.50
2018-01-18T04:03:29.178Z,59.38
2018-01-18T04:04:31.640Z,59.27
2018-01-18T04:05:34.091Z,59.23
2018-01-18T04:06:36.542Z,59.17
2018-01-18T04:07:39.018Z,59.23
2018-01-18T04:08:41.470Z,59.21
2018-01-18T04:09:43.926Z,59.27
2018-01-18T04:10:46.392Z,59.49
2018-01-18T04:11:48.845Z,59.44
2018-01-18T04:12:51.293Z,59.48
2018-01-18T04:13:53.746Z,59.55
2018-01-18T04:14:56.198Z,59.96
2018-01-18T04:15:58.660Z,59.75
2018-01-18T04:17:01.110Z,59.78
2018-01-18T04:18:03.588Z,59.91
2018-01-18T04:19:06.038Z,59.78
2018-01-18T04:20:08.490Z,59.69
2018-01-18T04:21:10.951Z,59.67
2018-01-18T04:22:13.405Z,59.86
2018-01-18T04:23:15.865Z,59.77
2018-01-18T04:24:18.343Z,59.65
2018-01-18T04:25:20.798Z,59.41
2018-01-18T04:26:23.264Z,59.75
2018-01-18T04:27:25.719Z,59.95
2018-01-18T04:28:28.192Z,60.01
2018-01-18T04:29:30.642Z,59.87
2018-01-18T04:30:33.111Z,59.94
2018-01-18T04:31:35.558Z,59.99
2018-01-18T04:32:38.024Z,59.97
2018-01-18T04:33:40.473Z,59.97
2018-01-18T04:34:42.922Z,60.03
2018-01-18T04:35:45.392Z,59.88
2018-01-18T04:36:47.842Z,59.90
2018-01-18T04:37:50.303Z,59.80
2018-01-18T04:38:52.761Z,59.66
2018-01-18T04:39:55.236Z,59.73
2018-01-18T04:40:57.686Z,60.21
2018-01-18T04:42:00.137Z,60.46
2018-01-18T04:43:02.607Z,60.26
2018-01-18T04:44:05.072Z,60.69
2018-01-18T04:45:07.534Z,60.56
2018-01-18T04:46:10.002Z,60.40
2018-01-18T04:47:12.467Z,59.96
2018-01-18T04:48:14.922Z,60.00
2018-01-18T04:49:17.383Z,60.19
2018-01-18T04:50:19.842Z,60.36
2018-01-18T04:51:22.309Z,60.63
2018-01-18T04:52:24.770Z,60.71
2018-01-18T04:53:27.264Z,60.41
2018-01-18T04:54:29.761Z,60.45
2018-01-18T04:55:32.236Z,60.20
2018-01-18T04:56:34.694Z,60.69
2018-01-18T04:57:37.154Z,60.55
2018-01-18T04:58:39.637Z,60.65
2018-01-18T04:59:42.106Z,60.64
2018-01-18T05:00:44.586Z,60.64
2018-01-18T05:01:47.061Z,60.92
2018-01-18T05:02:49.564Z,61.04
2018-01-18T05:03:52.030Z,61.06
2018-01-18T05:04:54.527Z,61.00
2018-01-18T05:05:56.991Z,60.94
2018-01-18T05:06:59.446Z,60.93
2018-01-18T05:08:01.911Z,60.98
2018-01-18T05:09:04.374Z,60.77
2018-01-18T05:10:06.852Z,60.60
2018-01-18T05:11:09.328Z,60.59
2018-01-18T05:12:11.782Z,60.67
2018-01-18T05:13:14.239Z,60.58
2018-01-18T05:14:16.804Z,60.35
2018-01-18T05:15:19.284Z,60.71
2018-01-18T05:16:21.746Z,61.18
2018-01-18T05:17:24.198Z,61.15
2018-01-18T05:18:26.655Z,60.59
2018-01-18T05:19:29.116Z,60.78
2018-01-18T05:20:31.569Z,60.88
2018-01-18T05:21:34.111Z,61.09
2018-01-18T05:22:36.583Z,60.81
2018-01-18T05:23:39.034Z,60.71
2018-01-18T05:24:41.497Z,60.88
2018-01-18T05:25:43.976Z,60.65
2018-01-18T05:26:46.705Z,60.76
2018-01-18T05:27:49.268Z,60.65
2018-01-18T05:28:51.713Z,60.66
2018-01-18T05:29:54.176Z,60.52
2018-01-18T05:30:56.630Z,60.58
2018-01-18T05:31:59.142Z,60.73
2018-01-18T05:33:01.612Z,60.69
2018-01-18T05:34:04.217Z,60.95
2018-01-18T05:35:06.700Z,61.19
2018-01-18T05:36:09.221Z,61.16
2018-01-18T05:37:11.695Z,61.02
2018-01-18T05:38:14.168Z,61.15
2018-01-18T05:39:16.626Z,61.37
2018-01-18T05:40:19.097Z,61.36
2018-01-18T05:41:21.553Z,61.34
2018-01-18T05:42:24.005Z,61.35
2018-01-18T05:43:26.464Z,61.36
2018-01-18T05:44:28.930Z,61.27
2018-01-18T05:45:31.390Z,61.31
2018-01-18T05:46:33.842Z,61.30
2018-01-18T05:47:36.307Z,61.26
2018-01-18T05:48:38.762Z,61.23
2018-01-18T05:49:41.244Z,61.21
2018-01-18T05:50:43.726Z,61.42
2018-01-18T05:51:46.190Z,61.44
2018-01-18T05:52:48.675Z,61.42
2018-01-18T05:53:51.151Z,61.41
2018-01-18T05:54:53.678Z,61.35
2018-01-18T05:55:56.160Z,61.41
2018-01-18T05:56:58.640Z,61.56
2018-01-18T05:58:01.116Z,61.63
2018-01-18T05:59:03.609Z,61.60
2018-01-18T06:00:06.073Z,61.57
2018-01-18T06:01:08.553Z,61.65
2018-01-18T06:02:11.036Z,61.61
2018-01-18T06:03:13.512Z,61.72
2018-01-18T06:04:16.018Z,61.57
2018-01-18T06:05:18.496Z,61.63
2018-01-18T06:06:20.961Z,61.64
2018-01-18T06:07:23.441Z,61.64
2018-01-18T06:08:25.920Z,61.64
2018-01-18T06:09:28.377Z,61.61
2018-01-18T06:10:30.954Z,61.59
2018-01-18T06:11:33.440Z,61.45
2018-01-18T06:12:35.893Z,61.25
2018-01-18T06:13:38.397Z,61.10
2018-01-18T06:14:40.853Z,61.22
2018-01-18T06:15:43.332Z,61.24
2018-01-18T06:16:45.794Z,61.15
2018-01-18T06:17:48.282Z,61.23
2018-01-18T06:18:50.756Z,61.26
2018-01-18T06:19:53.216Z,61.22
2018-01-18T06:20:55.678Z,61.18
2018-01-18T06:21:58.164Z,61.27
2018-01-18T06:23:00.643Z,61.11
2018-01-18T06:24:03.135Z,61.28
2018-01-18T06:25:05.667Z,61.37
2018-01-18T06:26:08.136Z,60.80
2018-01-18T06:27:10.605Z,60.67
2018-01-18T06:28:13.088Z,60.93
2018-01-18T06:29:15.546Z,61.31
2018-01-18T06:30:18.052Z,61.40
2018-01-18T06:31:20.532Z,61.29
2018-01-18T06:32:23.011Z,61.34
2018-01-18T06:33:25.502Z,61.34
2018-01-18T06:34:27.991Z,61.35
2018-01-18T06:35:30.471Z,61.41
2018-01-18T06:36:32.964Z,61.40
2018-01-18T06:37:35.440Z,61.40
2018-01-18T06:38:37.906Z,61.43
2018-01-18T06:39:40.381Z,61.37
2018-01-18T06:40:42.866Z,61.31
2018-01-18T06:41:45.342Z,61.40
2018-01-18T06:42:47.808Z,61.41
2018-01-18T06:43:50.284Z,61.42
2018-01-18T06:44:52.756Z,61.48
2018-01-18T06:45:55.206Z,61.34
2018-01-18T06:46:57.670Z,61.27
2018-01-18T06:48:00.188Z,61.08
2018-01-18T06:49:02.653Z,61.19
2018-01-18T06:50:05.118Z,61.64
2018-01-18T06:51:07.591Z,61.88
2018-01-18T06:52:10.064Z,62.05
2018-01-18T06:53:12.514Z,62.07
2018-01-18T06:54:14.972Z,62.13
2018-01-18T06:55:17.439Z,62.21
2018-01-18T06:56:19.918Z,62.22
2018-01-18T06:57:22.392Z,62.14
2018-01-18T06:58:24.864Z,62.10
2018-01-18T06:59:27.330Z,62.15
2018-01-18T07:00:29.780Z,62.22
2018-01-18T07:01:32.271Z,62.19
2018-01-18T07:02:34.744Z,62.01
2018-01-18T07:03:37.244Z,62.04
2018-01-18T07:04:39.810Z,62.18
2018-01-18T07:05:42.308Z,62.10
2018-01-18T07:06:44.780Z,62.12
2018-01-18T07:07:47.256Z,62.09
2018-01-18T07:08:49.811Z,62.16
2018-01-18T07:09:52.288Z,62.16
2018-01-18T07:10:54.756Z,62.17
2018-01-18T07:11:57.232Z,62.13
2018-01-18T07:12:59.721Z,62.07
2018-01-18T07:14:02.204Z,62.14
2018-01-18T07:15:04.665Z,62.25
2018-01-18T07:16:07.130Z,62.19
2018-01-18T07:17:09.607Z,62.12
2018-01-18T07:18:12.070Z,62.07
2018-01-18T07:19:14.551Z,62.10
2018-01-18T07:20:17.031Z,62.10
2018-01-18T07:21:19.495Z,62.18
2018-01-18T07:22:22.070Z,61.88
2018-01-18T07:23:24.547Z,61.33
2018-01-18T07:24:27.018Z,61.55
2018-01-18T07:25:29.496Z,61.66
2018-01-18T07:26:31.996Z,61.60
2018-01-18T07:27:34.474Z,61.60
2018-01-18T07:28:36.936Z,61.33
2018-01-18T07:29:39.386Z,61.21
2018-01-18T07:30:41.870Z,60.81
2018-01-18T07:31:44.353Z,60.23
2018-01-18T07:32:46.840Z,59.11
2018-01-18T07:33:49.337Z,58.72
2018-01-18T07:34:51.820Z,58.21
2018-01-18T07:35:54.304Z,58.01
2018-01-18T07:36:56.807Z,58.07
2018-01-18T07:37:59.257Z,57.49
2018-01-18T07:39:01.720Z,57.62
2018-01-18T07:40:04.222Z,56.80
2018-01-18T07:41:06.696Z,57.23
2018-01-18T07:42:09.194Z,57.17
2018-01-18T07:43:11.738Z,56.47
2018-01-18T07:44:14.198Z,55.14
2018-01-18T07:45:16.662Z,55.02
2018-01-18T07:46:19.126Z,54.70
2018-01-18T07:47:21.624Z,54.68
2018-01-18T07:48:24.086Z,54.74
2018-01-18T07:49:26.546Z,54.64
2018-01-18T07:50:29.020Z,55.01
2018-01-18T07:51:31.492Z,54.65
2018-01-18T07:52:33.988Z,54.19
2018-01-18T07:53:36.445Z,53.93
2018-01-18T07:54:38.924Z,53.91
2018-01-18T07:55:41.390Z,53.30
2018-01-18T07:56:43.863Z,52.96
2018-01-18T07:57:46.360Z,52.68
2018-01-18T07:58:48.825Z,52.54
2018-01-18T07:59:51.302Z,52.60
2018-01-18T08:00:53.762Z,52.35
2018-01-18T08:01:56.226Z,52.08
2018-01-18T08:03:04.458Z,52.12
2018-01-18T08:04:12.468Z,52.01
2018-01-18T08:05:14.944Z,51.76
2018-01-18T08:06:17.406Z,51.59
2018-01-18T08:07:19.933Z,51.71
2018-01-18T08:08:22.446Z,51.69
2018-01-18T08:09:24.932Z,51.74
2018-01-18T08:10:27.408Z,51.80
2018-01-18T08:11:29.888Z,51.90
2018-01-18T08:12:32.423Z,51.89
2018-01-18T08:13:34.906Z,51.69
2018-01-18T08:14:37.372Z,51.39
2018-01-18T08:15:39.851Z,51.38
2018-01-18T08:16:42.318Z,51.46
2018-01-18T08:17:44.781Z,51.36
2018-01-18T08:18:47.275Z,51.14
2018-01-18T08:19:49.837Z,51.18
2018-01-18T08:20:52.332Z,51.03
2018-01-18T08:21:54.806Z,50.95
2018-01-18T08:22:57.296Z,51.06
2018-01-18T08:23:59.779Z,51.08
2018-01-18T08:25:02.240Z,51.07
2018-01-18T08:26:04.700Z,51.12
2018-01-18T08:27:07.162Z,51.03
2018-01-18T08:28:09.624Z,51.09
2018-01-18T08:29:12.111Z,50.89
2018-01-18T08:30:14.565Z,50.83
2018-01-18T08:31:17.075Z,50.77
2018-01-18T08:32:19.551Z,50.67
2018-01-18T08:33:22.014Z,50.45
2018-01-18T08:34:24.496Z,50.31
2018-01-18T08:35:26.992Z,50.08
2018-01-18T08:36:29.414Z,49.89
2018-01-18T08:37:31.877Z,49.52
2018-01-18T08:38:34.352Z,49.50
2018-01-18T08:39:36.835Z,49.50
2018-01-18T08:40:39.289Z,49.43
2018-01-18T08:41:41.757Z,49.42
2018-01-18T08:42:44.224Z,49.60
2018-01-18T08:43:46.674Z,49.51
2018-01-18T08:44:49.155Z,49.26
2018-01-18T08:45:51.606Z,49.54
2018-01-18T08:46:54.063Z,49.50
2018-01-18T08:47:56.514Z,49.43
2018-01-18T08:48:58.986Z,49.26
2018-01-18T08:50:01.462Z,49.13
2018-01-18T08:51:03.936Z,48.92
2018-01-18T08:52:06.411Z,48.96
2018-01-18T08:53:08.875Z,48.71
2018-01-18T08:54:11.326Z,48.77
2018-01-18T08:55:13.822Z,48.37
2018-01-18T08:56:16.296Z,48.31
2018-01-18T08:57:18.778Z,48.33
2018-01-18T08:58:21.234Z,48.40
2018-01-18T08:59:23.686Z,48.20
2018-01-18T09:00:26.197Z,48.08
2018-01-18T09:01:28.664Z,48.73
2018-01-18T09:02:31.133Z,48.84
2018-01-18T09:03:33.586Z,49.60
2018-01-18T09:04:36.046Z,49.68
2018-01-18T09:05:38.538Z,49.08
2018-01-18T09:06:40.993Z,48.52
2018-01-18T09:07:43.476Z,48.91
2018-01-18T09:08:45.933Z,49.42
2018-01-18T09:09:48.386Z,49.34
2018-01-18T09:10:50.878Z,49.02
2018-01-18T09:11:53.348Z,49.08
2018-01-18T09:12:55.830Z,48.45
2018-01-18T09:13:58.286Z,48.89
2018-01-18T09:15:01.120Z,48.33
2018-01-18T09:16:03.621Z,48.83
2018-01-18T09:17:06.092Z,48.51
2018-01-18T09:18:08.546Z,48.67
2018-01-18T09:19:11.010Z,48.55
2018-01-18T09:20:13.476Z,48.71
2018-01-18T09:21:15.962Z,48.89
2018-01-18T09:22:18.418Z,49.01
2018-01-18T09:23:20.873Z,49.20
2018-01-18T09:24:23.325Z,49.01
2018-01-18T09:25:25.778Z,49.20
2018-01-18T09:26:28.250Z,49.09
2018-01-18T09:27:30.712Z,48.34
2018-01-18T09:28:33.167Z,49.70
2018-01-18T09:29:35.622Z,48.43
2018-01-18T09:30:38.081Z,48.46
2018-01-18T09:31:40.562Z,49.14
2018-01-18T09:32:43.014Z,48.85
2018-01-18T09:33:45.480Z,50.09
2018-01-18T09:34:47.938Z,50.20
2018-01-18T09:35:50.403Z,50.92
2018-01-18T09:36:52.883Z,49.66
2018-01-18T09:37:55.338Z,49.34
2018-01-18T09:38:57.809Z,48.90
2018-01-18T09:40:00.284Z,48.92
2018-01-18T09:41:02.738Z,48.63
2018-01-18T09:42:05.248Z,48.45
2018-01-18T09:43:07.702Z,48.40
2018-01-18T09:44:10.183Z,48.56
2018-01-18T09:45:12.708Z,48.53
2018-01-18T09:46:15.168Z,48.57
2018-01-18T09:47:17.655Z,48.56
2018-01-18T09:48:20.214Z,48.54
2018-01-18T09:49:22.666Z,48.56
2018-01-18T09:50:25.195Z,48.49
2018-01-18T09:51:27.680Z,48.49
2018-01-18T09:52:30.166Z,48.56
2018-01-18T09:53:32.640Z,48.61
2018-01-18T09:54:35.330Z,48.69
2018-01-18T09:55:37.812Z,48.73
2018-01-18T09:56:40.347Z,48.87
2018-01-18T09:57:42.830Z,48.94
2018-01-18T09:58:46.042Z,48.86
2018-01-18T09:59:48.644Z,48.82
2018-01-18T10:00:51.110Z,48.77
2018-01-18T10:01:53.576Z,48.64
2018-01-18T10:02:56.054Z,48.55
2018-01-18T10:03:58.515Z,48.67
2018-01-18T10:05:00.984Z,48.91
2018-01-18T10:06:03.548Z,48.96
2018-01-18T10:07:06.006Z,48.87
2018-01-18T10:08:08.486Z,48.72
2018-01-18T10:09:10.970Z,48.45
2018-01-18T10:10:13.431Z,48.74
2018-01-18T10:11:15.889Z,48.75
2018-01-18T10:12:18.342Z,48.54
2018-01-18T10:13:20.827Z,48.52
2018-01-18T10:14:23.285Z,48.76
2018-01-18T10:15:25.763Z,48.72
2018-01-18T10:16:28.217Z,48.70
2018-01-18T10:17:30.690Z,48.58
2018-01-18T10:18:33.165Z,48.38
2018-01-18T10:19:35.636Z,48.61
2018-01-18T10:20:38.107Z,48.52
2018-01-18T10:21:40.562Z,48.00
2018-01-18T10:22:43.036Z,48.19
2018-01-18T10:23:45.517Z,48.21
2018-01-18T10:24:47.990Z,48.45
2018-01-18T10:25:50.470Z,48.44
2018-01-18T10:26:52.939Z,48.57
2018-01-18T10:27:55.393Z,48.78
2018-01-18T10:28:57.878Z,49.33
2018-01-18T10:30:00.342Z,49.02
2018-01-18T10:31:02.797Z,48.74
2018-01-18T10:32:05.268Z,48.98
2018-01-18T10:33:07.726Z,49.02
2018-01-18T10:34:10.206Z,48.96
2018-01-18T10:35:12.666Z,48.88
2018-01-18T10:36:15.144Z,48.64
2018-01-18T10:37:17.602Z,48.36
2018-01-18T10:38:20.074Z,48.43
2018-01-18T10:39:22.582Z,48.34
2018-01-18T10:40:25.043Z,48.36
2018-01-18T10:41:27.511Z,48.19
2018-01-18T10:42:29.982Z,48.06
2018-01-18T10:43:32.447Z,48.02
2018-01-18T10:44:34.945Z,47.92
2018-01-18T10:45:37.440Z,47.89
2018-01-18T10:46:39.915Z,47.86
2018-01-18T10:47:42.389Z,47.94
2018-01-18T10:48:44.862Z,47.85
2018-01-18T10:49:47.495Z,47.73
2018-01-18T10:50:49.980Z,47.71
2018-01-18T10:51:52.433Z,47.56
2018-01-18T10:52:54.908Z,47.37
2018-01-18T10:53:57.396Z,47.26
2018-01-18T10:54:59.888Z,47.19
2018-01-18T10:56:02.368Z,47.11
2018-01-18T10:57:04.829Z,47.06
2018-01-18T10:58:07.282Z,47.02
2018-01-18T10:59:09.737Z,47.00
2018-01-18T11:00:12.254Z,46.94
2018-01-18T11:01:14.702Z,46.88
2018-01-18T11:02:17.158Z,46.92
2018-01-18T11:03:19.628Z,46.94
2018-01-18T11:04:22.082Z,46.94
2018-01-18T11:05:24.576Z,46.93
2018-01-18T11:06:27.169Z,46.87
2018-01-18T11:07:29.538Z,46.78
2018-01-18T11:08:32.014Z,46.65
2018-01-18T11:09:34.507Z,46.57
2018-01-18T11:10:36.986Z,46.44
2018-01-18T11:11:39.452Z,46.32
2018-01-18T11:12:41.906Z,46.29
2018-01-18T11:13:44.358Z,46.22
2018-01-18T11:14:46.837Z,46.20
2018-01-18T11:15:49.332Z,46.16
2018-01-18T11:16:51.789Z,46.16
2018-01-18T11:17:54.260Z,46.17
2018-01-18T11:18:56.736Z,46.06
2018-01-18T11:19:59.203Z,46.15
2018-01-18T11:21:01.682Z,46.20
2018-01-18T11:22:04.141Z,46.21
2018-01-18T11:23:06.594Z,46.12
2018-01-18T11:24:09.053Z,46.09
2018-01-18T11:25:11.528Z,45.88
2018-01-18T11:26:14.001Z,45.90
2018-01-18T11:27:16.453Z,45.82
2018-01-18T11:28:19.046Z,45.75
2018-01-18T11:29:22.811Z,45.76
2018-01-18T11:30:25.276Z,45.64
2018-01-18T11:31:27.763Z,45.82
2018-01-18T11:32:30.213Z,45.95
2018-01-18T11:33:32.666Z,46.07
2018-01-18T11:34:35.136Z,46.18
2018-01-18T11:35:37.618Z,46.14
2018-01-18T11:36:40.090Z,46.12
2018-01-18T11:37:42.560Z,46.45
2018-01-18T11:38:45.011Z,46.31
2018-01-18T11:39:47.481Z,46.15
2018-01-18T11:40:49.948Z,46.11
2018-01-18T11:41:52.443Z,45.87
2018-01-18T11:42:54.898Z,45.69
2018-01-18T11:43:57.354Z,45.73
2018-01-18T11:44:59.816Z,45.64
2018-01-18T11:46:02.288Z,45.53
2018-01-18T11:47:04.762Z,45.72
2018-01-18T11:48:07.218Z,45.59
2018-01-18T11:49:09.688Z,45.54
2018-01-18T11:50:12.138Z,45.06
2018-01-18T11:51:14.594Z,44.77
2018-01-18T11:52:17.074Z,44.73
2018-01-18T11:53:19.529Z,44.55
2018-01-18T11:54:22.060Z,44.63
2018-01-18T11:55:24.519Z,44.63
2018-01-18T11:56:26.988Z,44.67
2018-01-18T11:57:29.476Z,44.59
2018-01-18T11:58:31.945Z,44.51
2018-01-18T11:59:34.416Z,44.54
2018-01-18T12:00:36.900Z,44.46
2018-01-18T12:01:39.372Z,44.26
2018-01-18T12:02:41.853Z,44.00
2018-01-18T12:03:44.316Z,43.73
2018-01-18T12:04:46.782Z,43.51
2018-01-18T12:05:49.263Z,43.21
2018-01-18T12:06:51.736Z,42.32
2018-01-18T12:07:54.234Z,42.05
2018-01-18T12:08:56.740Z,41.88
2018-01-18T12:09:59.219Z,41.53
2018-01-18T12:11:01.677Z,40.99
2018-01-18T12:12:04.172Z,40.66
2018-01-18T12:13:06.650Z,40.52
2018-01-18T12:14:09.140Z,40.37
2018-01-18T12:15:11.602Z,40.36
2018-01-18T12:16:14.059Z,40.39
2018-01-18T12:17:16.540Z,40.34
2018-01-18T12:18:19.034Z,40.45
2018-01-18T12:19:21.492Z,40.60
2018-01-18T12:20:23.967Z,40.71
2018-01-18T12:21:26.422Z,40.88
2018-01-18T12:22:28.874Z,41.04
2018-01-18T12:23:31.368Z,41.11
2018-01-18T12:24:33.826Z,41.19
2018-01-18T12:25:36.296Z,41.17
2018-01-18T12:26:38.758Z,41.13
2018-01-18T12:27:41.248Z,41.17
2018-01-18T12:28:43.740Z,41.22
2018-01-18T12:29:46.194Z,41.26
2018-01-18T12:30:48.674Z,41.69
2018-01-18T12:31:51.151Z,41.75
2018-01-18T12:32:53.632Z,41.86
2018-01-18T12:33:56.110Z,41.97
2018-01-18T12:34:58.588Z,42.22
2018-01-18T12:36:01.059Z,42.35
2018-01-18T12:37:03.614Z,42.59
2018-01-18T12:38:06.095Z,42.71
2018-01-18T12:39:08.574Z,42.89
2018-01-18T12:40:11.076Z,43.00
2018-01-18T12:41:13.576Z,43.19
2018-01-18T12:42:16.093Z,43.29
2018-01-18T12:43:18.554Z,43.44
2018-01-18T12:44:21.045Z,43.70
2018-01-18T12:45:23.502Z,43.83
2018-01-18T12:46:25.962Z,43.96
2018-01-18T12:47:28.428Z,44.07
2018-01-18T12:48:30.900Z,44.17
2018-01-18T12:49:33.392Z,44.38
2018-01-18T12:50:35.850Z,44.50
2018-01-18T12:51:38.323Z,44.59
2018-01-18T12:52:40.778Z,44.75
2018-01-18T12:53:43.276Z,44.83
2018-01-18T12:54:45.763Z,44.92
2018-01-18T12:55:48.227Z,45.00
2018-01-18T12:56:50.683Z,45.03
2018-01-18T12:57:53.147Z,45.13
2018-01-18T12:58:55.603Z,45.13
2018-01-18T12:59:58.101Z,45.17
2018-01-18T13:01:00.572Z,45.21
2018-01-18T13:02:03.049Z,45.28
2018-01-18T13:03:05.514Z,45.31
2018-01-18T13:04:07.970Z,45.39
2018-01-18T13:05:10.455Z,45.49
2018-01-18T13:06:12.910Z,45.58
2018-01-18T13:07:15.384Z,45.68
2018-01-18T13:08:17.861Z,45.76
2018-01-18T13:09:20.350Z,45.79
2018-01-18T13:10:22.842Z,45.93
2018-01-18T13:11:25.317Z,45.97
2018-01-18T13:12:27.778Z,46.05
2018-01-18T13:13:30.239Z,46.07
2018-01-18T13:14:32.698Z,46.02
2018-01-18T13:15:35.338Z,46.09
2018-01-18T13:16:37.816Z,46.09
2018-01-18T13:17:40.274Z,46.11
2018-01-18T13:18:42.735Z,46.14
2018-01-18T13:19:45.208Z,46.14
2018-01-18T13:20:47.682Z,46.23
2018-01-18T13:21:50.140Z,46.29
2018-01-18T13:22:52.606Z,46.37
2018-01-18T13:23:55.076Z,46.48
2018-01-18T13:24:57.534Z,46.51